Huvudsida
METAR-TAF:

METAR-TAF

Flygplatser :

Gran Canarias flygplats

Gran Canaria, Spanien

latitud: 27-56N, longitud: 015-23W, höjd: 23 m

Aktuellt väderrapport

Denna rapport gjordes för 34 minuter sedan, klockan 07:00 UTC
Vind 18 kt från nord
Temperatur 22°C
Fuktighet 83%
Tryck 1018 hPa
Sikt 10 km eller mer
Få moln på en höjd av 2000 ft

METAR: GCLP 150700Z 01018KT 9999 FEW020 22/19 Q1018 NOSIG

Tid: 08:34 (07:34 UTC)

Väderprognos

Denna rapport gjordes för 5 timmar och 34 minuter sedan, klockan 02:00 UTC
Prognos gäller från 15 kl. 03 UTC till 16 kl. 03 UTC
Vind 20 kt från nord
Sikt 10 km eller mer
Få moln på en höjd av 1500 ft
Sannolikhet 30% :
Temporärt
från 15 kl. 09 UTC till 16 kl. 02 UTC
Vind 24 kt från nord i byarna ända upp till 34 kt

TAF: GCLP 150200Z 1503/1603 01020KT 9999 FEW015 TX28/1514Z TN22/1505Z PROB30 TEMPO 1509/1602 01024G34KT

Aktuella väderrapporter och prognoser från 4000 flygplatser (METAR- och TAF-rapporter).

De tillgängliga stationerna syns som gula och röda prickar på kartan.

För musen över prickarna för att se namnen på stationerna.

Klicka sedan för att få väderrapporter och prognoser.

För att ändra kartan: Klicka på de gröna knapparna med ett svart kors på för att zooma in; den gröna knappen med ett streck på för att zooma ut; eller på de gröna pilarna för angränsande kartor.


METAR-TAF: